Time;durP1;ratioP1;P1;durP2;ratioP2;P2;SDS_P1;SDS_P2;PMS_P1;PMS_P2;Temp;Humidity;BMP_temperature;BMP_pressure;BME280_temperature;BME280_humidity;BME280_pressure;Samples;Min_cycle;Max_cycle;Signal;HPM_P1;HPM_P2
2024/02/25 00:00:59;;;;;;;25.80;12.00;;;;;;;5.52;79.45;100199.66;111059;1210;139137;-67
2024/02/25 00:03:25;;;;;;;21.30;10.60;;;;;;;5.50;79.47;100202.39;111034;1207;98936;-66
2024/02/25 00:05:50;;;;;;;23.30;9.70;;;;;;;5.50;79.52;100199.55;110855;1208;140160;-66
2024/02/25 00:08:16;;;;;;;23.10;9.60;;;;;;;5.50;79.55;100197.41;111067;1209;99072;-66
2024/02/25 00:10:42;;;;;;;22.00;10.00;;;;;;;5.48;79.48;100197.13;111083;1206;99492;-66
2024/02/25 00:13:08;;;;;;;24.70;9.40;;;;;;;5.47;79.54;100195.05;110869;1209;139857;-66
2024/02/25 00:15:33;;;;;;;26.70;10.30;;;;;;;5.45;79.54;100198.48;111100;1205;99117;-66
2024/02/25 00:17:58;;;;;;;22.30;9.50;;;;;;;5.43;79.52;100200.48;110969;1209;138943;-66
2024/02/25 00:20:24;;;;;;;24.70;10.20;;;;;;;5.40;79.57;100199.14;111037;1206;99349;-66
2024/02/25 00:22:50;;;;;;;30.50;9.90;;;;;;;5.39;79.63;100202.73;111113;1206;99032;-66
2024/02/25 00:25:15;;;;;;;31.00;10.00;;;;;;;5.38;79.57;100199.92;110895;1206;138578;-66
2024/02/25 00:27:41;;;;;;;24.10;9.70;;;;;;;5.36;79.66;100197.16;111166;1206;99064;-67
2024/02/25 00:30:07;;;;;;;27.90;11.30;;;;;;;5.33;79.63;100195.99;110903;1206;139238;-66
2024/02/25 00:32:32;;;;;;;23.50;10.00;;;;;;;5.31;79.71;100200.13;111046;1209;99760;-66
2024/02/25 00:34:58;;;;;;;27.50;9.50;;;;;;;5.28;79.66;100199.86;111193;1206;99122;-66
2024/02/25 00:37:24;;;;;;;23.90;10.00;;;;;;;5.28;79.68;100194.73;110983;1209;138997;-66
2024/02/25 00:39:49;;;;;;;20.70;9.60;;;;;;;5.29;79.77;100193.81;111121;1209;99006;-66
2024/02/25 00:42:14;;;;;;;21.20;9.40;;;;;;;5.30;79.87;100195.92;111009;1206;138763;-66
2024/02/25 00:44:43;;;;;;;19.60;9.10;;;;;;;5.29;79.82;100195.77;111049;1209;99035;-66
2024/02/25 00:47:08;;;;;;;19.80;8.60;;;;;;;5.29;79.81;100198.60;110923;1206;99059;-66
2024/02/25 00:49:33;;;;;;;20.20;9.40;;;;;;;5.27;79.79;100196.68;110951;1206;139796;-66
2024/02/25 00:51:59;;;;;;;21.20;9.20;;;;;;;5.25;79.82;100198.36;111090;1206;98934;-65
2024/02/25 00:54:24;;;;;;;20.60;9.80;;;;;;;5.18;79.66;100195.23;110980;1206;138760;-66
2024/02/25 00:56:49;;;;;;;21.10;9.40;;;;;;;5.13;79.78;100196.94;111019;1206;98943;-66
2024/02/25 00:59:15;;;;;;;19.00;9.20;;;;;;;5.12;79.84;100190.60;111085;1206;99033;-67
2024/02/25 01:01:40;;;;;;;22.50;10.00;;;;;;;5.12;79.96;100185.48;110966;1206;138746;-67
2024/02/25 01:04:05;;;;;;;19.30;8.90;;;;;;;5.12;79.87;100188.14;111184;1209;99693;-67
2024/02/25 01:06:31;;;;;;;24.80;9.30;;;;;;;5.12;79.95;100186.55;110993;1209;139113;-66
2024/02/25 01:08:56;;;;;;;21.40;9.10;;;;;;;5.11;80.00;100181.60;111149;1206;99016;-66
2024/02/25 01:11:21;;;;;;;19.80;9.30;;;;;;;5.10;80.13;100186.06;111048;1210;99021;-66
2024/02/25 01:13:47;;;;;;;23.10;10.20;;;;;;;5.09;80.02;100187.51;110997;1209;139003;-66
2024/02/25 01:16:12;;;;;;;18.40;9.00;;;;;;;5.06;80.02;100187.58;110966;1210;98899;-66
2024/02/25 01:18:37;;;;;;;24.40;10.20;;;;;;;5.02;79.98;100184.34;110942;1209;138623;-66
2024/02/25 01:21:03;;;;;;;29.10;9.20;;;;;;;5.01;80.15;100186.33;111134;1209;98930;-66
2024/02/25 01:23:58;;;;;;;22.00;9.60;;;;;;;5.00;80.04;100185.81;111039;1209;99056;-66
2024/02/25 01:26:23;;;;;;;21.80;9.00;;;;;;;4.98;80.09;100187.48;111001;1206;99768;-67
2024/02/25 01:28:49;;;;;;;24.40;9.70;;;;;;;4.96;80.06;100188.42;111116;1206;99094;-67
2024/02/25 01:31:14;;;;;;;22.50;10.20;;;;;;;4.94;80.03;100187.59;111039;1210;138831;-67
2024/02/25 01:33:39;;;;;;;22.70;8.90;;;;;;;4.88;80.10;100185.60;111126;1206;99040;-67
2024/02/25 01:36:06;;;;;;;24.70;9.90;;;;;;;4.85;80.18;100180.39;110924;1206;140654;-66
2024/02/25 01:38:32;;;;;;;23.40;10.80;;;;;;;4.81;80.22;100179.42;111101;1210;99567;-67
2024/02/25 01:40:57;;;;;;;48.60;21.70;;;;;;;4.80;80.37;100178.93;110951;1209;98954;-66
2024/02/25 01:43:23;;;;;;;22.00;10.70;;;;;;;4.80;80.52;100179.63;110981;1206;138822;-67
2024/02/25 01:45:48;;;;;;;20.90;9.60;;;;;;;4.81;80.25;100187.92;110946;1206;113347;-67
2024/02/25 01:48:18;;;;;;;21.70;10.00;;;;;;;4.80;80.42;100185.29;110926;1206;138984;-66
2024/02/25 01:50:43;;;;;;;21.60;9.90;;;;;;;4.80;80.43;100187.08;111093;1206;99032;-67
2024/02/25 01:53:10;;;;;;;25.20;10.40;;;;;;;4.80;80.44;100187.26;111014;1206;98940;-67
2024/02/25 01:55:36;;;;;;;28.90;11.40;;;;;;;4.79;80.54;100183.73;110989;1209;138708;-66
2024/02/25 01:58:05;;;;;;;32.20;10.70;;;;;;;4.77;80.44;100181.14;111218;1206;99021;-66
2024/02/25 02:00:31;;;;;;;22.90;10.20;;;;;;;4.76;80.51;100180.64;110993;1206;139227;-66
2024/02/25 02:02:59;;;;;;;26.30;10.30;;;;;;;4.74;80.54;100177.86;111108;1206;98942;-66
2024/02/25 02:05:24;;;;;;;24.70;10.70;;;;;;;4.71;80.64;100180.23;111254;1205;99038;-67
2024/02/25 02:07:50;;;;;;;30.50;11.20;;;;;;;4.70;80.47;100179.21;111177;1205;138714;-67
2024/02/25 02:10:15;;;;;;;33.70;11.80;;;;;;;4.68;80.70;100174.85;111037;1206;99112;-67
2024/02/25 02:12:44;;;;;;;25.70;10.20;;;;;;;4.67;80.61;100174.51;111001;1206;138904;-67
2024/02/25 02:15:11;;;;;;;28.80;11.30;;;;;;;4.68;80.70;100174.48;111079;1208;98956;-67
2024/02/25 02:17:41;;;;;;;22.00;10.50;;;;;;;4.67;80.70;100174.86;111071;1206;99086;-66
2024/02/25 02:20:16;;;;;;;25.20;11.30;;;;;;;4.66;80.68;100172.59;110989;1209;138638;-66
2024/02/25 02:22:42;;;;;;;26.30;10.70;;;;;;;4.65;80.71;100171.89;111134;1205;107534;-67
2024/02/25 02:25:08;;;;;;;26.70;10.90;;;;;;;4.65;80.85;100173.67;110947;1205;139001;-67
2024/02/25 02:27:40;;;;;;;34.40;11.30;;;;;;;4.64;80.81;100171.04;111239;1209;98939;-66
2024/02/25 02:30:07;;;;;;;28.40;11.20;;;;;;;4.65;80.89;100167.66;111042;1206;140038;-67
2024/02/25 02:32:33;;;;;;;28.80;11.50;;;;;;;4.65;80.82;100163.42;111188;1205;99035;-65
2024/02/25 02:34:59;;;;;;;29.30;11.20;;;;;;;4.65;81.09;100164.64;111096;1208;99000;-67
2024/02/25 02:37:24;;;;;;;20.90;9.90;;;;;;;4.66;80.98;100168.52;111311;1205;139346;-66
2024/02/25 02:39:49;;;;;;;28.70;10.30;;;;;;;4.64;80.90;100167.34;111172;1210;99036;-67
2024/02/25 02:42:15;;;;;;;32.30;10.80;;;;;;;4.60;80.87;100172.55;110991;1206;139956;-67
2024/02/25 02:44:45;;;;;;;30.20;11.50;;;;;;;4.57;81.16;100174.78;111190;1205;99120;-66
2024/02/25 02:47:11;;;;;;;28.00;11.60;;;;;;;4.55;81.11;100174.83;111121;1207;114070;-66
2024/02/25 02:49:36;;;;;;;30.60;12.00;;;;;;;4.53;81.12;100183.89;111060;1209;140323;-66
2024/02/25 02:52:02;;;;;;;25.10;10.40;;;;;;;4.50;81.11;100179.90;111090;1210;98947;-67
2024/02/25 02:54:27;;;;;;;27.50;12.10;;;;;;;4.50;81.23;100177.78;110981;1206;140624;-67
2024/02/25 02:56:52;;;;;;;23.70;10.50;;;;;;;4.51;81.35;100177.42;111113;1206;99081;-66
2024/02/25 02:59:20;;;;;;;28.00;11.10;;;;;;;4.52;81.21;100172.95;111147;1208;99132;-66
2024/02/25 03:01:48;;;;;;;23.10;11.10;;;;;;;4.53;81.44;100172.94;110977;1209;139836;-66
2024/02/25 03:04:13;;;;;;;29.40;12.20;;;;;;;4.54;81.44;100173.80;111060;1206;99071;-66
2024/02/25 03:06:39;;;;;;;28.30;11.40;;;;;;;4.54;81.32;100173.79;111021;1206;139469;-67
2024/02/25 03:09:04;;;;;;;24.80;11.40;;;;;;;4.51;81.32;100170.33;111143;1208;98940;-66
2024/02/25 03:11:29;;;;;;;26.60;11.40;;;;;;;4.50;81.36;100168.05;111004;1206;99054;-67
2024/02/25 03:13:54;;;;;;;31.00;13.20;;;;;;;4.49;81.35;100164.89;111081;1209;138779;-66
2024/02/25 03:16:20;;;;;;;29.50;11.70;;;;;;;4.48;81.53;100164.92;111144;1208;99046;-67
2024/02/25 03:18:45;;;;;;;30.00;11.30;;;;;;;4.48;81.54;100166.16;111066;1206;138989;-67
2024/02/25 03:21:10;;;;;;;28.30;12.50;;;;;;;4.49;81.59;100166.33;111034;1206;98916;-67
2024/02/25 03:23:36;;;;;;;32.40;12.20;;;;;;;4.48;81.45;100169.00;111121;1208;99029;-67
2024/02/25 03:26:02;;;;;;;33.80;12.40;;;;;;;4.47;81.71;100174.67;111098;1208;139084;-67
2024/02/25 03:28:27;;;;;;;31.40;13.20;;;;;;;4.46;81.55;100178.77;111114;1206;98935;-68
2024/02/25 03:30:53;;;;;;;33.40;14.00;;;;;;;4.45;81.68;100179.67;110968;1206;139356;-67
2024/02/25 03:33:18;;;;;;;31.30;12.70;;;;;;;4.42;81.63;100180.10;111141;1211;99035;-67
2024/02/25 03:35:43;;;;;;;31.20;13.70;;;;;;;4.41;81.53;100183.86;111100;1207;98908;-66
2024/02/25 03:38:08;;;;;;;32.10;14.00;;;;;;;4.39;81.52;100182.31;111072;1209;138624;-67
2024/02/25 03:40:33;;;;;;;35.70;15.10;;;;;;;4.37;81.66;100183.61;111101;1206;99095;-66
2024/02/25 03:42:59;;;;;;;32.50;13.60;;;;;;;4.34;81.63;100184.92;111046;1208;138711;-67
2024/02/25 03:45:24;;;;;;;33.80;14.30;;;;;;;4.32;81.48;100186.74;111059;1208;98987;-67
2024/02/25 03:47:49;;;;;;;32.30;14.40;;;;;;;4.30;81.58;100185.56;111151;1208;99032;-67
2024/02/25 03:50:15;;;;;;;32.00;14.80;;;;;;;4.29;81.75;100184.17;111110;1208;138818;-68
2024/02/25 03:52:40;;;;;;;31.40;13.70;;;;;;;4.30;81.85;100181.30;111067;1210;99013;-67
2024/02/25 03:55:06;;;;;;;34.60;15.10;;;;;;;4.31;81.75;100178.98;111348;1208;138801;-67
2024/02/25 03:57:32;;;;;;;32.00;15.20;;;;;;;4.31;81.80;100170.85;111433;1207;112954;-67
2024/02/25 03:59:57;;;;;;;36.40;14.60;;;;;;;4.31;81.79;100167.85;110982;1208;139332;-67
2024/02/25 04:02:23;;;;;;;33.60;15.80;;;;;;;4.29;81.73;100170.55;111209;1210;98946;-68
2024/02/25 04:04:48;;;;;;;32.60;14.40;;;;;;;4.29;81.78;100164.72;111173;1208;99038;-67
2024/02/25 04:07:14;;;;;;;35.00;15.60;;;;;;;4.28;81.93;100162.44;110974;1209;138914;-67
2024/02/25 04:09:40;;;;;;;35.60;16.20;;;;;;;4.25;81.79;100158.61;111030;1211;99000;-67
2024/02/25 04:12:07;;;;;;;33.10;14.90;;;;;;;4.24;82.00;100155.48;110933;1206;140698;-67
2024/02/25 04:14:35;;;;;;;36.30;16.50;;;;;;;4.20;81.80;100157.15;111062;1212;98946;-67
2024/02/25 04:17:02;;;;;;;36.50;15.40;;;;;;;4.15;81.90;100156.75;110985;1210;99038;-67
2024/02/25 04:19:27;;;;;;;44.20;16.50;;;;;;;4.10;81.77;100156.34;110942;1206;139543;-67
2024/02/25 04:21:52;;;;;;;35.60;16.00;;;;;;;4.09;81.94;100159.71;111100;1208;98947;-67
2024/02/25 04:24:18;;;;;;;35.50;15.30;;;;;;;4.10;81.87;100156.70;110992;1207;141327;-67
2024/02/25 04:26:44;;;;;;;38.30;16.20;;;;;;;4.08;81.92;100155.15;111056;1206;98953;-67
2024/02/25 04:29:09;;;;;;;37.20;16.40;;;;;;;4.06;81.77;100153.80;111021;1210;98944;-67
2024/02/25 04:31:40;;;;;;;34.30;15.80;;;;;;;4.04;82.16;100149.59;110984;1210;138870;-67
2024/02/25 04:34:05;;;;;;;36.90;16.00;;;;;;;4.04;81.81;100147.65;111061;1208;98924;-67
2024/02/25 04:36:30;;;;;;;39.90;16.30;;;;;;;4.01;82.16;100147.55;111020;1210;139998;-67
2024/02/25 04:38:56;;;;;;;35.50;16.30;;;;;;;4.00;82.10;100141.91;110987;1209;98933;-67
2024/02/25 04:41:21;;;;;;;39.20;17.00;;;;;;;3.98;82.10;100138.61;111103;1208;98341;-67
2024/02/25 04:43:46;;;;;;;41.90;18.10;;;;;;;3.97;82.00;100135.27;111115;1206;138858;-67
2024/02/25 04:46:11;;;;;;;44.60;19.10;;;;;;;3.96;82.03;100135.66;111079;1205;99037;-67
2024/02/25 04:48:38;;;;;;;39.30;17.00;;;;;;;3.95;82.04;100136.23;111020;1208;139205;-67
2024/02/25 04:51:03;;;;;;;41.70;18.70;;;;;;;3.94;82.31;100139.26;111056;1206;98953;-67
2024/02/25 04:53:29;;;;;;;38.10;18.40;;;;;;;3.91;82.24;100139.84;111094;1209;98975;-67
2024/02/25 04:55:55;;;;;;;40.30;18.80;;;;;;;3.90;82.39;100137.21;111057;1210;139083;-67
2024/02/25 04:58:20;;;;;;;44.70;18.50;;;;;;;3.89;82.15;100142.71;110976;1206;99070;-67
2024/02/25 05:00:45;;;;;;;38.80;18.90;;;;;;;3.88;82.28;100143.45;111032;1206;138827;-67
2024/02/25 05:03:11;;;;;;;36.20;17.20;;;;;;;3.86;82.24;100144.38;111137;1206;100451;-67
2024/02/25 05:05:37;;;;;;;45.40;19.70;;;;;;;3.84;82.33;100144.27;111096;1208;98962;-65
2024/02/25 05:08:03;;;;;;;45.60;20.80;;;;;;;3.83;82.33;100144.46;111026;1209;139390;-67
2024/02/25 05:10:28;;;;;;;44.30;20.80;;;;;;;3.83;82.48;100143.93;111289;1208;112962;-67
2024/02/25 05:12:54;;;;;;;44.00;20.10;;;;;;;3.81;82.20;100147.33;111081;1210;140461;-67
2024/02/25 05:15:19;;;;;;;46.80;20.50;;;;;;;3.77;82.36;100150.80;111209;1208;99029;-67
2024/02/25 05:17:44;;;;;;;42.50;21.00;;;;;;;3.73;82.32;100154.41;111092;1207;98996;-67
2024/02/25 05:20:10;;;;;;;43.60;19.90;;;;;;;3.68;82.28;100155.77;111135;1206;138688;-67
2024/02/25 05:22:35;;;;;;;46.90;20.00;;;;;;;3.64;82.36;100155.16;111183;1208;99031;-67
2024/02/25 05:25:01;;;;;;;44.20;18.40;;;;;;;3.60;82.52;100146.41;110875;1205;138797;-67
2024/02/25 05:27:35;;;;;;;44.70;19.10;;;;;;;3.57;82.40;100146.12;111231;1208;98911;-67
2024/02/25 05:30:01;;;;;;;45.60;20.60;;;;;;;3.56;82.56;100145.44;110993;1210;138913;-67
2024/02/25 05:32:26;;;;;;;46.10;20.00;;;;;;;3.56;82.45;100146.15;111193;1209;98998;-67
2024/02/25 05:34:51;;;;;;;43.70;19.20;;;;;;;3.55;82.65;100146.52;111259;1206;99454;-67
2024/02/25 05:37:16;;;;;;;43.80;19.70;;;;;;;3.56;82.64;100151.98;110981;1208;139464;-67
2024/02/25 05:39:42;;;;;;;48.30;20.70;;;;;;;3.56;82.77;100153.74;111160;1210;98930;-67
2024/02/25 05:42:07;;;;;;;59.30;23.70;;;;;;;3.57;82.76;100151.60;111085;1207;139644;-67
2024/02/25 05:44:33;;;;;;;46.30;21.70;;;;;;;3.58;83.07;100146.27;111222;1208;98922;-66
2024/02/25 05:46:58;;;;;;;52.90;21.70;;;;;;;3.60;83.00;100146.95;111235;1208;99130;-66
2024/02/25 05:49:23;;;;;;;56.20;23.00;;;;;;;3.58;82.83;100145.56;110919;1210;139458;-66
2024/02/25 05:51:48;;;;;;;53.30;24.70;;;;;;;3.57;82.91;100151.77;111137;1207;99049;-66
2024/02/25 05:54:14;;;;;;;50.90;23.40;;;;;;;3.55;82.81;100148.11;110969;1211;138950;-66
2024/02/25 05:56:39;;;;;;;46.40;22.90;;;;;;;3.56;83.05;100147.04;111162;1210;99441;-65
2024/02/25 05:59:07;;;;;;;54.40;24.70;;;;;;;3.56;83.12;100146.14;111024;1210;98946;-66
2024/02/25 06:01:35;;;;;;;48.50;24.80;;;;;;;3.56;83.17;100147.90;110928;1210;138866;-66
2024/02/25 06:04:03;;;;;;;50.70;22.90;;;;;;;3.56;83.26;100147.55;111072;1210;112950;-66
2024/02/25 06:06:28;;;;;;;51.60;24.00;;;;;;;3.58;83.30;100150.87;111181;1207;139145;-66
2024/02/25 06:08:53;;;;;;;49.40;22.60;;;;;;;3.58;83.43;100153.70;111147;1208;99052;-66
2024/02/25 06:11:18;;;;;;;60.20;24.90;;;;;;;3.57;83.29;100157.08;111021;1206;99004;-66
2024/02/25 06:13:44;;;;;;;57.30;25.00;;;;;;;3.57;83.28;100152.83;110921;1207;139121;-66
2024/02/25 06:16:09;;;;;;;55.90;24.10;;;;;;;3.56;83.20;100157.80;111138;1207;98978;-66
2024/02/25 06:18:35;;;;;;;59.50;25.80;;;;;;;3.56;83.39;100159.03;110967;1209;139945;-66
2024/02/25 06:21:00;;;;;;;56.20;24.30;;;;;;;3.55;83.35;100163.65;111151;1210;99040;-66
2024/02/25 06:23:25;;;;;;;54.90;24.20;;;;;;;3.55;83.46;100168.42;111194;1211;98958;-66
2024/02/25 06:25:56;;;;;;;52.20;24.40;;;;;;;3.55;83.53;100164.19;110993;1210;138858;-66
2024/02/25 06:28:22;;;;;;;57.50;25.20;;;;;;;3.54;83.64;100156.07;111059;1210;99051;-66
2024/02/25 06:30:47;;;;;;;52.10;24.00;;;;;;;3.54;83.52;100158.37;110943;1206;139173;-66
2024/02/25 06:33:12;;;;;;;51.70;24.00;;;;;;;3.54;83.54;100162.96;111128;1207;99142;-66
2024/02/25 06:35:37;;;;;;;48.70;23.80;;;;;;;3.55;83.45;100162.59;111091;1210;98943;-67
2024/02/25 06:38:03;;;;;;;56.00;23.70;;;;;;;3.54;83.77;100162.80;111003;1219;138777;-67
2024/02/25 06:40:28;;;;;;;54.60;24.80;;;;;;;3.53;83.65;100163.00;111057;1209;99031;-66
2024/02/25 06:42:53;;;;;;;53.20;23.90;;;;;;;3.51;83.65;100161.09;111006;1210;139269;-66
2024/02/25 06:45:19;;;;;;;57.60;26.00;;;;;;;3.51;83.60;100155.09;111091;1210;99032;-66
2024/02/25 06:47:46;;;;;;;52.10;24.00;;;;;;;3.50;83.69;100157.93;111109;1210;98930;-66
2024/02/25 06:50:12;;;;;;;59.10;26.60;;;;;;;3.51;83.98;100154.38;110996;1210;138764;-67
2024/02/25 06:52:37;;;;;;;46.70;23.70;;;;;;;3.52;83.80;100154.70;111228;1209;98916;-66
2024/02/25 06:55:03;;;;;;;50.70;24.80;;;;;;;3.53;83.80;100156.98;110932;1219;139248;-66
2024/02/25 06:57:28;;;;;;;57.50;25.70;;;;;;;3.55;84.07;100155.36;111131;1206;98967;-67
2024/02/25 06:59:55;;;;;;;52.40;25.70;;;;;;;3.57;84.00;100157.79;110987;1206;139322;-67
2024/02/25 07:02:20;;;;;;;51.30;25.20;;;;;;;3.59;84.17;100157.92;111048;1206;108211;-66
2024/02/25 07:04:45;;;;;;;60.80;26.30;;;;;;;3.60;84.00;100156.30;111090;1210;99008;-67
2024/02/25 07:07:11;;;;;;;44.40;23.90;;;;;;;3.62;84.29;100157.84;110994;1209;138892;-66
2024/02/25 07:09:36;;;;;;;55.20;25.50;;;;;;;3.64;84.01;100158.52;111007;1206;99013;-66
2024/02/25 07:12:01;;;;;;;53.10;24.40;;;;;;;3.64;84.26;100156.91;110944;1210;138880;-67
2024/02/25 07:14:29;;;;;;;58.40;26.40;;;;;;;3.66;84.34;100154.21;111006;1209;99034;-66
2024/02/25 07:16:55;;;;;;;57.00;26.90;;;;;;;3.68;84.34;100149.23;110955;1210;113340;-66
2024/02/25 07:19:20;;;;;;;56.30;26.60;;;;;;;3.70;84.49;100145.47;110939;1211;140063;-66
2024/02/25 07:21:46;;;;;;;52.40;24.90;;;;;;;3.72;84.36;100148.43;111085;1206;98988;-66
2024/02/25 07:24:11;;;;;;;55.40;26.60;;;;;;;3.74;84.30;100149.27;110899;1211;139311;-67
2024/02/25 07:26:37;;;;;;;56.60;26.10;;;;;;;3.75;84.38;100154.73;111102;1210;99028;-68
2024/02/25 07:29:02;;;;;;;55.90;27.60;;;;;;;3.76;84.42;100153.47;111040;1210;108093;-66
2024/02/25 07:31:28;;;;;;;59.50;27.50;;;;;;;3.77;84.50;100151.85;110954;1206;140002;-66
2024/02/25 07:33:53;;;;;;;56.70;26.30;;;;;;;3.77;84.58;100146.02;111182;1211;98942;-66
2024/02/25 07:36:18;;;;;;;59.90;28.80;;;;;;;3.78;84.69;100144.04;110981;1206;139159;-68
2024/02/25 07:38:44;;;;;;;64.30;28.60;;;;;;;3.81;84.61;100144.14;111182;1206;99792;-67
2024/02/25 07:41:09;;;;;;;54.50;28.20;;;;;;;3.83;84.68;100143.73;110940;1210;99059;-67
2024/02/25 07:43:36;;;;;;;60.80;28.40;;;;;;;3.86;84.76;100138.02;110870;1211;138961;-66
2024/02/25 07:46:04;;;;;;;56.40;28.00;;;;;;;3.90;84.97;100134.38;113140;1206;97078;-67
2024/02/25 07:48:31;;;;;;;57.60;27.60;;;;;;;3.95;84.90;100131.98;113110;1206;139305;-67
2024/02/25 07:50:56;;;;;;;60.00;26.20;;;;;;;3.98;84.95;100129.41;112909;1206;96980;-67
2024/02/25 07:53:23;;;;;;;51.20;24.30;;;;;;;4.03;84.89;100128.60;110998;1212;99023;-67
2024/02/25 07:55:50;;;;;;;56.00;25.70;;;;;;;4.06;85.00;100126.20;111027;1211;139274;-67
2024/02/25 07:58:15;;;;;;;54.20;25.60;;;;;;;4.11;85.09;100123.45;110926;1210;99036;-66
2024/02/25 08:00:41;;;;;;;52.90;27.40;;;;;;;4.15;85.18;100123.16;111042;1210;138953;-66
2024/02/25 08:03:06;;;;;;;60.70;27.20;;;;;;;4.19;85.10;100124.98;111038;1212;111672;-66
2024/02/25 08:05:31;;;;;;;53.10;25.50;;;;;;;4.24;85.26;100125.76;111079;1209;98151;-66
2024/02/25 08:07:58;;;;;;;51.90;26.60;;;;;;;4.29;85.29;100119.61;110974;1208;138893;-66
2024/02/25 08:10:23;;;;;;;53.90;25.80;;;;;;;4.33;85.54;100115.45;110967;1206;100315;-67
2024/02/25 08:12:50;;;;;;;53.10;25.70;;;;;;;4.36;85.46;100116.25;110842;1208;138922;-66
2024/02/25 08:15:16;;;;;;;54.70;25.80;;;;;;;4.40;85.57;100114.21;111033;1211;99522;-67
2024/02/25 08:17:42;;;;;;;49.80;24.50;;;;;;;4.42;85.60;100115.54;111023;1210;99150;-67
2024/02/25 08:20:07;;;;;;;48.90;25.50;;;;;;;4.44;85.49;100112.85;110797;1211;138957;-67
2024/02/25 08:22:36;;;;;;;56.20;25.90;;;;;;;4.45;85.53;100107.14;111100;1206;100520;-66
2024/02/25 08:25:03;;;;;;;56.10;25.60;;;;;;;4.47;85.48;100099.13;113046;1206;139485;-67
2024/02/25 08:27:32;;;;;;;56.50;27.30;;;;;;;4.49;85.54;100089.70;113157;1206;97658;-67
2024/02/25 08:30:05;;;;;;;56.30;26.10;;;;;;;4.53;85.59;100086.42;110990;1212;141808;-67
2024/02/25 08:32:32;;;;;;;53.00;24.80;;;;;;;4.54;85.70;100084.09;111594;1206;98949;-67
2024/02/25 08:34:57;;;;;;;52.50;25.80;;;;;;;4.56;85.66;100079.59;111420;1206;99052;-68
2024/02/25 08:37:27;;;;;;;50.30;25.50;;;;;;;4.59;85.65;100079.34;110877;1211;139017;-67
2024/02/25 08:39:53;;;;;;;52.70;25.80;;;;;;;4.62;85.76;100078.22;111087;1210;100640;-66
2024/02/25 08:42:20;;;;;;;47.80;24.60;;;;;;;4.64;85.86;100079.39;110909;1206;141252;-68
2024/02/25 08:44:46;;;;;;;56.00;25.40;;;;;;;4.68;85.98;100076.79;111192;1209;99441;-67
2024/02/25 08:47:11;;;;;;;51.30;24.70;;;;;;;4.72;85.96;100078.80;111133;1206;100279;-67
2024/02/25 08:49:37;;;;;;;48.50;25.80;;;;;;;4.75;85.94;100076.60;111024;1212;142016;-67
2024/02/25 08:52:04;;;;;;;51.80;24.20;;;;;;;4.79;85.82;100075.05;111151;1206;99862;-68
2024/02/25 08:54:29;;;;;;;52.40;24.20;;;;;;;4.85;85.98;100068.17;111076;1211;141221;-68
2024/02/25 08:56:54;;;;;;;54.30;25.40;;;;;;;4.91;86.07;100060.56;111074;1206;99020;-70
2024/02/25 08:59:19;;;;;;;53.00;25.50;;;;;;;4.98;86.08;100058.93;111098;1210;100904;-69
2024/02/25 09:01:45;;;;;;;50.60;25.00;;;;;;;5.04;86.06;100058.92;111113;1212;141003;-70
2024/02/25 09:04:12;;;;;;;46.50;23.30;;;;;;;5.09;86.02;100053.63;110956;1209;99026;-69
2024/02/25 09:06:39;;;;;;;51.00;24.50;;;;;;;5.15;86.23;100049.72;110827;1210;139254;-70
2024/02/25 09:09:05;;;;;;;51.40;24.70;;;;;;;5.22;86.32;100040.10;110949;1206;99160;-69
2024/02/25 09:11:31;;;;;;;48.00;22.90;;;;;;;5.28;86.22;100038.13;111118;1206;98995;-69
2024/02/25 09:13:56;;;;;;;47.40;23.20;;;;;;;5.32;86.24;100033.39;110954;1209;138948;-68
2024/02/25 09:16:22;;;;;;;50.70;23.40;;;;;;;5.36;86.14;100037.32;111034;1206;100067;-69
2024/02/25 09:18:48;;;;;;;51.00;24.70;;;;;;;5.41;86.23;100037.54;110947;1206;138734;-69
2024/02/25 09:21:14;;;;;;;48.00;23.80;;;;;;;5.46;86.34;100038.43;110927;1212;99577;-69
2024/02/25 09:23:39;;;;;;;53.10;24.60;;;;;;;5.50;86.41;100031.04;111107;1211;98220;-67
2024/02/25 09:26:08;;;;;;;46.80;23.60;;;;;;;5.57;86.33;100026.37;111088;1208;138956;-66
2024/02/25 09:28:34;;;;;;;41.70;21.70;;;;;;;5.64;86.34;100025.09;111202;1206;112684;-66
2024/02/25 09:31:00;;;;;;;41.60;23.30;;;;;;;5.69;86.47;100022.80;111007;1206;140603;-67
2024/02/25 09:33:29;;;;;;;50.60;23.50;;;;;;;5.75;86.50;100022.77;111206;1206;98928;-68
2024/02/25 09:35:59;;;;;;;44.70;22.80;;;;;;;5.81;86.40;100019.20;111030;1206;99038;-68
2024/02/25 09:38:28;;;;;;;49.20;23.90;;;;;;;5.88;86.61;100017.55;111128;1211;112944;-67
2024/02/25 09:41:04;;;;;;;42.40;21.20;;;;;;;5.96;86.67;100016.23;111161;1208;98976;-69
2024/02/25 09:43:30;;;;;;;39.10;21.00;;;;;;;6.04;86.65;100009.77;111036;1212;139958;-68
2024/02/25 09:45:58;;;;;;;49.50;23.70;;;;;;;6.10;86.59;100002.61;111087;1209;99012;-67
2024/02/25 09:48:24;;;;;;;44.10;23.80;;;;;;;6.17;86.66;100001.30;110957;1212;139007;-68
2024/02/25 09:50:52;;;;;;;44.30;22.80;;;;;;;6.23;86.69;99995.77;111059;1206;99013;-68
2024/02/25 09:53:21;;;;;;;51.40;24.10;;;;;;;6.31;86.76;99988.90;111098;1209;99058;-69
2024/02/25 09:55:49;;;;;;;43.50;21.70;;;;;;;6.39;86.82;99987.22;111142;1212;138779;-68
2024/02/25 09:58:17;;;;;;;46.90;22.90;;;;;;;6.43;86.70;99987.58;111171;1210;99034;-67
2024/02/25 10:00:42;;;;;;;44.00;22.10;;;;;;;6.48;86.74;99984.05;110926;1212;139046;-67
2024/02/25 10:03:11;;;;;;;39.40;21.40;;;;;;;6.53;86.73;99977.10;111170;1209;98935;-68
2024/02/25 10:05:36;;;;;;;47.40;21.80;;;;;;;6.58;86.66;99973.16;111089;1207;99157;-67
2024/02/25 10:08:24;;;;;;;;;;;;;;;;;;;;;
2024/02/25 10:10:51;;;;;;;38.60;19.20;;;;;;;6.70;86.75;99966.67;110996;1211;99445;-67
2024/02/25 10:13:17;;;;;;;41.70;20.30;;;;;;;6.75;86.77;99964.17;110810;1206;138724;-68
2024/02/25 10:15:42;;;;;;;36.70;19.40;;;;;;;6.81;86.84;99961.27;111036;1210;99018;-68
2024/02/25 10:18:09;;;;;;;36.20;20.20;;;;;;;6.87;86.82;99962.66;110904;1208;138932;-67
2024/02/25 10:20:34;;;;;;;41.00;20.30;;;;;;;6.94;86.89;99963.10;111056;1206;99023;-67
2024/02/25 10:23:10;;;;;;;44.90;22.10;;;;;;;7.00;86.84;99958.23;111037;1209;99009;-68
2024/02/25 10:25:46;;;;;;;41.80;21.70;;;;;;;7.07;86.94;99957.05;111352;1206;139197;-69
2024/02/25 10:28:16;;;;;;;39.40;21.40;;;;;;;7.14;87.00;99958.16;111015;1211;99145;-67
2024/02/25 10:31:08;;;;;;;40.20;21.20;;;;;;;7.19;86.95;99955.85;110868;1209;138942;-68
2024/02/25 10:33:33;;;;;;;40.70;20.70;;;;;;;7.25;86.97;99954.37;111020;1206;98929;-68
2024/02/25 10:36:05;;;;;;;40.10;19.90;;;;;;;7.30;87.01;99948.48;111039;1206;99064;-68
2024/02/25 10:38:31;;;;;;;33.30;19.90;;;;;;;7.38;87.07;99944.78;111078;1209;99862;-68
2024/02/25 10:40:57;;;;;;;34.50;18.30;;;;;;;7.46;87.11;99939.11;110999;1207;98953;-69
2024/02/25 10:43:25;;;;;;;36.30;18.80;;;;;;;7.54;87.05;99938.59;110946;1212;140227;-69
2024/02/25 10:45:51;;;;;;;38.40;18.80;;;;;;;7.58;86.99;99940.19;111014;1206;99025;-67
2024/02/25 10:48:20;;;;;;;34.00;17.90;;;;;;;7.62;87.01;99939.84;111008;1207;139359;-67
2024/02/25 10:50:49;;;;;;;35.40;18.30;;;;;;;7.67;86.95;99934.32;111099;1208;107517;-67
2024/02/25 10:53:16;;;;;;;32.30;17.90;;;;;;;7.73;86.96;99934.77;111099;1206;98990;-67
2024/02/25 10:55:43;;;;;;;30.00;17.20;;;;;;;7.78;86.99;99932.94;110934;1206;139579;-67
2024/02/25 10:58:14;;;;;;;33.20;18.60;;;;;;;7.82;86.93;99930.23;111175;1210;99048;-66
2024/02/25 11:00:40;;;;;;;32.70;18.40;;;;;;;7.88;86.96;99932.27;110917;1209;141022;-67
2024/02/25 11:03:07;;;;;;;34.90;18.20;;;;;;;7.92;86.94;99932.63;110972;1206;99031;-67
2024/02/25 11:05:32;;;;;;;30.60;17.40;;;;;;;7.97;86.92;99923.70;111008;1206;99033;-67